createdAt,value
2019-01-31T00:00:30.124Z,29.33
2019-01-31T00:03:11.975Z,29.07
2019-01-31T00:06:06.504Z,29.23
2019-01-31T00:08:46.217Z,30.43
2019-01-31T00:11:26.341Z,28.77
2019-01-31T00:14:02.497Z,29.17
2019-01-31T00:16:50.120Z,30.07
2019-01-31T00:19:26.132Z,29.57
2019-01-31T00:22:07.452Z,28.87
2019-01-31T00:24:42.927Z,29.63
2019-01-31T00:27:24.769Z,28.57
2019-01-31T00:30:00.251Z,30.37
2019-01-31T00:32:46.359Z,30.60
2019-01-31T00:35:57.233Z,29.73
2019-01-31T00:38:35.410Z,29.23
2019-01-31T00:41:31.167Z,29.17
2019-01-31T00:44:32.030Z,29.67
2019-01-31T00:47:16.765Z,30.60
2019-01-31T00:50:10.351Z,29.27
2019-01-31T00:52:48.938Z,28.87
2019-01-31T00:55:27.324Z,28.73
2019-01-31T00:58:21.398Z,29.37
2019-01-31T01:01:03.903Z,29.33
2019-01-31T01:03:59.705Z,28.90
2019-01-31T01:06:37.781Z,28.03
2019-01-31T01:09:37.884Z,29.70
2019-01-31T01:12:19.224Z,28.73
2019-01-31T01:15:20.539Z,28.40
2019-01-31T01:18:01.382Z,28.83
2019-01-31T01:20:57.674Z,27.93
2019-01-31T01:23:36.404Z,28.30
2019-01-31T01:26:28.215Z,28.23
2019-01-31T01:29:11.392Z,29.20
2019-01-31T01:31:53.169Z,27.83
2019-01-31T01:35:01.447Z,29.43
2019-01-31T01:37:44.080Z,29.07
2019-01-31T01:40:31.885Z,30.17
2019-01-31T01:43:13.545Z,28.43
2019-01-31T01:46:00.890Z,30.10
2019-01-31T01:48:46.405Z,29.37
2019-01-31T01:51:24.695Z,27.80
2019-01-31T01:54:30.870Z,27.70
2019-01-31T01:57:30.677Z,28.20
2019-01-31T02:00:06.244Z,27.33
2019-01-31T02:03:00.883Z,27.57
2019-01-31T02:05:52.848Z,30.90
2019-01-31T02:08:53.627Z,31.63
2019-01-31T02:11:41.238Z,30.30
2019-01-31T02:14:33.230Z,30.30
2019-01-31T02:17:11.891Z,31.17
2019-01-31T02:19:52.746Z,33.53
2019-01-31T02:22:33.890Z,34.83
2019-01-31T02:25:16.514Z,36.17
2019-01-31T02:28:04.033Z,34.97
2019-01-31T02:30:45.033Z,35.13
2019-01-31T02:33:32.361Z,34.50
2019-01-31T02:36:19.747Z,33.50
2019-01-31T02:39:18.969Z,34.20
2019-01-31T02:42:00.500Z,34.10
2019-01-31T02:45:04.556Z,34.23
2019-01-31T02:47:49.130Z,31.83
2019-01-31T02:50:30.610Z,32.33
2019-01-31T02:53:16.540Z,32.80
2019-01-31T02:56:13.391Z,31.50
2019-01-31T02:59:02.488Z,32.67
2019-01-31T03:02:05.773Z,30.87
2019-01-31T03:04:43.963Z,30.63
2019-01-31T03:07:36.078Z,30.27
2019-01-31T03:10:34.030Z,30.70
2019-01-31T03:13:15.008Z,31.53
2019-01-31T03:16:16.081Z,30.50
2019-01-31T03:18:54.118Z,29.47
2019-01-31T03:21:57.626Z,30.47
2019-01-31T03:24:35.872Z,30.50
2019-01-31T03:27:23.477Z,29.63
2019-01-31T03:30:28.940Z,29.60
2019-01-31T03:33:09.983Z,29.73
2019-01-31T03:35:51.343Z,30.67
2019-01-31T03:38:31.908Z,30.97
2019-01-31T03:41:10.118Z,30.47
2019-01-31T03:43:54.345Z,29.73
2019-01-31T03:46:50.102Z,29.97
2019-01-31T03:49:46.410Z,30.27
2019-01-31T03:52:49.065Z,32.00
2019-01-31T03:55:36.606Z,31.57
2019-01-31T03:58:23.465Z,30.67
2019-01-31T04:01:11.009Z,31.57
2019-01-31T04:03:50.673Z,30.17
2019-01-31T04:06:26.964Z,30.77
2019-01-31T04:08:59.405Z,33.57
2019-01-31T04:11:29.149Z,36.07
2019-01-31T04:14:01.523Z,36.53
2019-01-31T04:16:31.282Z,34.13
2019-01-31T04:19:01.002Z,35.23
2019-01-31T04:21:30.926Z,34.43
2019-01-31T04:24:00.837Z,36.13
2019-01-31T04:26:31.058Z,34.40
2019-01-31T04:29:00.853Z,34.17
2019-01-31T04:31:33.230Z,33.97
2019-01-31T04:34:05.725Z,33.10
2019-01-31T04:36:38.632Z,34.20
2019-01-31T04:39:09.563Z,34.40
2019-01-31T04:41:42.026Z,34.63
2019-01-31T04:44:11.986Z,36.50
2019-01-31T04:46:44.421Z,36.07
2019-01-31T04:49:14.208Z,36.70
2019-01-31T04:51:43.982Z,38.40
2019-01-31T04:54:13.804Z,39.80
2019-01-31T04:56:46.319Z,38.63
2019-01-31T04:59:16.134Z,40.30
2019-01-31T05:01:46.019Z,40.43
2019-01-31T05:04:15.951Z,43.03
2019-01-31T05:06:45.757Z,41.30
2019-01-31T05:09:15.551Z,40.13
2019-01-31T05:11:45.466Z,40.73
2019-01-31T05:14:15.637Z,40.50
2019-01-31T05:16:45.607Z,42.87
2019-01-31T05:19:15.664Z,42.50
2019-01-31T05:21:45.520Z,43.07
2019-01-31T05:24:15.277Z,40.83
2019-01-31T05:26:45.089Z,42.20
2019-01-31T05:29:14.909Z,42.63
2019-01-31T05:31:44.839Z,39.50
2019-01-31T05:34:14.629Z,38.87
2019-01-31T05:36:44.524Z,41.33
2019-01-31T05:39:14.350Z,37.67
2019-01-31T05:41:44.243Z,42.53
2019-01-31T05:44:14.218Z,41.83
2019-01-31T05:46:44.027Z,45.13
2019-01-31T05:49:16.506Z,52.20
2019-01-31T05:51:46.322Z,45.03
2019-01-31T05:54:16.089Z,40.57
2019-01-31T05:56:45.862Z,37.73
2019-01-31T05:59:15.655Z,38.13
2019-01-31T06:01:45.384Z,41.60
2019-01-31T06:04:15.214Z,35.17
2019-01-31T06:06:44.986Z,34.93
2019-01-31T06:09:14.765Z,34.07
2019-01-31T06:11:44.547Z,36.27
2019-01-31T06:14:14.333Z,36.60
2019-01-31T06:16:44.153Z,35.73
2019-01-31T06:19:13.952Z,36.57
2019-01-31T06:21:43.738Z,35.07
2019-01-31T06:24:13.448Z,34.63
2019-01-31T06:26:43.179Z,35.00
2019-01-31T06:29:13.521Z,34.93
2019-01-31T06:31:43.272Z,35.63
2019-01-31T06:34:13.107Z,34.97
2019-01-31T06:36:42.894Z,35.73
2019-01-31T06:39:12.580Z,35.50
2019-01-31T06:41:42.385Z,35.23
2019-01-31T06:44:12.263Z,35.87
2019-01-31T06:46:41.885Z,35.17
2019-01-31T06:49:11.704Z,35.00
2019-01-31T06:51:41.490Z,34.40
2019-01-31T06:54:11.301Z,34.00
2019-01-31T06:56:40.989Z,33.77
2019-01-31T06:59:10.695Z,33.57
2019-01-31T07:01:40.546Z,45.77
2019-01-31T07:04:11.124Z,37.60
2019-01-31T07:06:41.065Z,31.87
2019-01-31T07:09:10.891Z,31.97
2019-01-31T07:11:40.983Z,32.20
2019-01-31T07:14:10.673Z,32.07
2019-01-31T07:16:40.384Z,32.90
2019-01-31T07:19:10.065Z,35.30
2019-01-31T07:21:39.853Z,34.33
2019-01-31T07:24:09.550Z,34.30
2019-01-31T07:26:41.448Z,35.50
2019-01-31T07:29:12.291Z,36.20
2019-01-31T07:31:42.042Z,35.00
2019-01-31T07:34:11.888Z,33.47
2019-01-31T07:36:41.563Z,33.33
2019-01-31T07:39:11.262Z,32.93
2019-01-31T07:41:41.791Z,32.97
2019-01-31T07:44:11.719Z,33.03
2019-01-31T07:46:41.521Z,31.70
2019-01-31T07:49:11.219Z,33.27
2019-01-31T07:51:42.653Z,31.50
2019-01-31T07:54:12.430Z,32.83
2019-01-31T07:56:42.231Z,31.13
2019-01-31T07:59:12.097Z,33.03
2019-01-31T08:01:41.897Z,30.83
2019-01-31T08:04:11.700Z,32.37
2019-01-31T08:06:41.546Z,32.77
2019-01-31T08:09:11.272Z,32.10
2019-01-31T08:11:52.127Z,31.30
2019-01-31T08:14:12.545Z,32.80
2019-01-31T08:16:42.326Z,30.17
2019-01-31T08:19:12.346Z,31.10
2019-01-31T08:21:42.124Z,32.47
2019-01-31T08:24:11.990Z,31.93
2019-01-31T08:26:41.815Z,31.27
2019-01-31T08:29:11.632Z,30.13
2019-01-31T08:31:41.501Z,30.03
2019-01-31T08:34:11.349Z,30.97
2019-01-31T08:36:41.186Z,30.87
2019-01-31T08:39:10.980Z,31.80
2019-01-31T08:41:40.752Z,30.97
2019-01-31T08:44:10.718Z,30.93
2019-01-31T08:46:40.566Z,32.30
2019-01-31T08:49:10.318Z,32.03
2019-01-31T08:51:40.108Z,32.50
2019-01-31T08:54:09.906Z,34.30
2019-01-31T08:56:39.696Z,34.73
2019-01-31T08:59:09.584Z,34.73
2019-01-31T09:01:39.397Z,34.70
2019-01-31T09:04:09.226Z,34.63
2019-01-31T09:06:39.030Z,33.60
2019-01-31T09:09:10.329Z,33.50
2019-01-31T09:11:40.142Z,33.80
2019-01-31T09:14:09.962Z,33.00
2019-01-31T09:16:39.815Z,33.67
2019-01-31T09:19:09.596Z,34.80
2019-01-31T09:21:40.507Z,32.40
2019-01-31T09:24:15.850Z,33.97
2019-01-31T09:27:22.004Z,34.60
2019-01-31T09:30:16.000Z,33.57
2019-01-31T09:32:54.967Z,33.03
2019-01-31T09:35:33.753Z,39.13
2019-01-31T09:38:28.133Z,33.53
2019-01-31T09:41:08.513Z,31.70
2019-01-31T09:43:44.104Z,32.60
2019-01-31T09:46:33.645Z,32.90
2019-01-31T09:49:26.842Z,34.67
2019-01-31T09:52:09.322Z,32.57
2019-01-31T09:54:42.227Z,34.40
2019-01-31T09:57:31.226Z,32.27
2019-01-31T10:00:13.755Z,33.27
2019-01-31T10:03:06.153Z,34.83
2019-01-31T10:06:05.501Z,33.23
2019-01-31T10:08:46.806Z,32.77
2019-01-31T10:11:42.342Z,33.93
2019-01-31T10:14:24.329Z,33.30
2019-01-31T10:16:59.892Z,32.57
2019-01-31T10:19:56.662Z,33.60
2019-01-31T10:22:43.111Z,33.63
2019-01-31T10:25:16.634Z,36.47
2019-01-31T10:28:04.564Z,34.47
2019-01-31T10:30:55.514Z,32.83
2019-01-31T10:33:44.698Z,32.67
2019-01-31T10:36:34.229Z,32.90
2019-01-31T10:39:18.913Z,33.07
2019-01-31T10:42:15.928Z,34.70
2019-01-31T10:44:48.765Z,34.30
2019-01-31T10:47:24.749Z,35.93
2019-01-31T10:50:00.599Z,34.90
2019-01-31T10:52:36.334Z,34.73
2019-01-31T10:55:24.346Z,35.00
2019-01-31T10:58:02.999Z,34.63
2019-01-31T11:00:35.967Z,34.40
2019-01-31T11:03:28.442Z,33.53
2019-01-31T11:06:10.384Z,34.50
2019-01-31T11:08:55.236Z,35.87
2019-01-31T11:11:31.112Z,36.30
2019-01-31T11:14:23.363Z,37.00
2019-01-31T11:17:15.751Z,37.43
2019-01-31T11:19:51.469Z,34.70
2019-01-31T11:22:27.085Z,34.03
2019-01-31T11:25:27.475Z,35.87
2019-01-31T11:28:28.967Z,43.87
2019-01-31T11:31:10.894Z,37.50
2019-01-31T11:34:00.201Z,35.03
2019-01-31T11:36:47.670Z,34.33
2019-01-31T11:39:32.363Z,34.60
2019-01-31T11:42:21.686Z,34.13
2019-01-31T11:45:11.125Z,32.20
2019-01-31T11:47:56.085Z,34.13
2019-01-31T11:50:50.172Z,32.80
2019-01-31T11:53:41.081Z,35.60
2019-01-31T11:56:31.782Z,34.40
2019-01-31T11:59:04.043Z,33.67
2019-01-31T12:01:33.766Z,31.73
2019-01-31T12:04:05.959Z,32.47
2019-01-31T12:06:35.783Z,31.53
2019-01-31T12:09:10.580Z,32.93
2019-01-31T12:11:40.346Z,30.27
2019-01-31T12:14:10.171Z,41.43
2019-01-31T12:16:39.941Z,30.73
2019-01-31T12:19:09.764Z,29.27
2019-01-31T12:21:39.626Z,29.60
2019-01-31T12:24:16.053Z,29.90
2019-01-31T12:26:41.036Z,29.60
2019-01-31T12:29:10.821Z,29.60
2019-01-31T12:31:40.597Z,29.57
2019-01-31T12:34:10.437Z,29.03
2019-01-31T12:36:40.238Z,27.80
2019-01-31T12:39:10.480Z,30.07
2019-01-31T12:41:40.323Z,29.70
2019-01-31T12:44:10.199Z,28.20
2019-01-31T12:46:40.043Z,28.50
2019-01-31T12:49:09.826Z,27.43
2019-01-31T12:51:39.587Z,27.10
2019-01-31T12:54:09.399Z,27.50
2019-01-31T12:56:39.147Z,27.77
2019-01-31T12:59:08.987Z,28.43
2019-01-31T13:01:38.706Z,27.53
2019-01-31T13:04:08.474Z,26.20
2019-01-31T13:06:38.360Z,25.33
2019-01-31T13:09:09.395Z,25.40
2019-01-31T13:11:39.570Z,45.70
2019-01-31T13:14:09.434Z,26.17
2019-01-31T13:16:39.193Z,24.37
2019-01-31T13:19:08.984Z,23.87
2019-01-31T13:21:38.783Z,24.83
2019-01-31T13:24:08.598Z,24.17
2019-01-31T13:26:38.368Z,24.73
2019-01-31T13:29:08.142Z,24.33
2019-01-31T13:31:37.927Z,23.87
2019-01-31T13:34:07.747Z,25.00
2019-01-31T13:36:37.601Z,23.60
2019-01-31T13:39:09.627Z,23.30
2019-01-31T13:41:41.821Z,23.43
2019-01-31T13:44:10.899Z,24.13
2019-01-31T13:46:40.807Z,22.67
2019-01-31T13:49:10.728Z,23.10
2019-01-31T13:51:40.520Z,22.70
2019-01-31T13:54:10.348Z,22.40
2019-01-31T13:56:45.743Z,21.53
2019-01-31T13:59:11.662Z,22.90
2019-01-31T14:01:41.449Z,23.57
2019-01-31T14:04:11.259Z,21.90
2019-01-31T14:06:41.013Z,22.27
2019-01-31T14:09:10.809Z,90.13
2019-01-31T14:11:40.630Z,35.13
2019-01-31T14:14:10.426Z,24.37
2019-01-31T14:16:47.264Z,23.73
2019-01-31T14:19:11.734Z,24.73
2019-01-31T14:21:44.091Z,25.20
2019-01-31T14:24:13.025Z,22.93
2019-01-31T14:26:42.841Z,22.13
2019-01-31T14:29:12.613Z,22.80
2019-01-31T14:31:42.408Z,52.47
2019-01-31T14:34:12.323Z,24.63
2019-01-31T14:36:42.089Z,23.53
2019-01-31T14:39:12.002Z,24.07
2019-01-31T14:41:41.814Z,25.23
2019-01-31T14:44:20.215Z,26.20
2019-01-31T14:46:43.141Z,26.10
2019-01-31T14:49:12.946Z,26.90
2019-01-31T14:51:42.698Z,26.23
2019-01-31T14:54:12.540Z,26.27
2019-01-31T14:56:42.685Z,28.33
2019-01-31T14:59:12.488Z,27.97
2019-01-31T15:01:42.326Z,26.93
2019-01-31T15:04:12.226Z,27.17
2019-01-31T15:06:42.022Z,27.07
2019-01-31T15:09:11.773Z,26.43
2019-01-31T15:11:41.584Z,26.90
2019-01-31T15:14:11.330Z,26.53
2019-01-31T15:16:41.103Z,27.17
2019-01-31T15:19:10.957Z,27.43
2019-01-31T15:21:40.699Z,25.13
2019-01-31T15:24:10.553Z,26.40
2019-01-31T15:26:40.412Z,25.97
2019-01-31T15:29:10.180Z,26.10
2019-01-31T15:31:39.933Z,24.87
2019-01-31T15:34:09.699Z,23.63
2019-01-31T15:36:39.568Z,22.47
2019-01-31T15:39:09.428Z,22.97
2019-01-31T15:41:39.263Z,23.67
2019-01-31T15:44:09.128Z,24.73
2019-01-31T15:46:39.032Z,26.00
2019-01-31T15:49:08.865Z,25.90
2019-01-31T15:51:38.806Z,27.37
2019-01-31T15:54:08.923Z,29.10
2019-01-31T15:56:38.858Z,28.43
2019-01-31T15:59:09.393Z,28.00
2019-01-31T16:01:39.193Z,43.90
2019-01-31T16:04:09.042Z,26.60
2019-01-31T16:06:38.917Z,26.63
2019-01-31T16:09:09.459Z,27.70
2019-01-31T16:11:39.232Z,27.93
2019-01-31T16:14:09.190Z,29.13
2019-01-31T16:16:39.042Z,28.13
2019-01-31T16:19:08.826Z,28.90
2019-01-31T16:21:38.648Z,29.80
2019-01-31T16:24:08.522Z,29.07
2019-01-31T16:26:38.383Z,29.97
2019-01-31T16:29:08.206Z,28.53
2019-01-31T16:31:38.239Z,28.93
2019-01-31T16:34:08.204Z,30.70
2019-01-31T16:36:38.014Z,31.73
2019-01-31T16:39:08.808Z,31.70
2019-01-31T16:41:38.644Z,31.97
2019-01-31T16:44:09.068Z,32.13
2019-01-31T16:46:38.885Z,31.30
2019-01-31T16:49:08.628Z,32.73
2019-01-31T16:51:38.434Z,34.53
2019-01-31T16:54:08.365Z,33.43
2019-01-31T16:56:38.280Z,37.27
2019-01-31T16:59:08.224Z,35.57
2019-01-31T17:01:38.012Z,33.47
2019-01-31T17:04:07.867Z,34.17
2019-01-31T17:06:37.709Z,34.73
2019-01-31T17:09:08.809Z,35.23
2019-01-31T17:11:38.632Z,35.03
2019-01-31T17:14:08.413Z,35.13
2019-01-31T17:16:38.253Z,35.10
2019-01-31T17:19:08.033Z,38.80
2019-01-31T17:21:38.013Z,52.17
2019-01-31T17:24:08.573Z,37.33
2019-01-31T17:26:38.351Z,36.17
2019-01-31T17:29:08.159Z,36.10
2019-01-31T17:31:37.977Z,36.27
2019-01-31T17:34:07.952Z,36.10
2019-01-31T17:36:37.833Z,35.60
2019-01-31T17:39:08.709Z,36.47
2019-01-31T17:41:38.623Z,35.77
2019-01-31T17:44:08.460Z,37.17
2019-01-31T17:46:38.461Z,36.40
2019-01-31T17:49:08.326Z,36.57
2019-01-31T17:51:38.188Z,36.17
2019-01-31T17:54:07.984Z,35.30
2019-01-31T17:56:37.834Z,36.00
2019-01-31T17:59:07.695Z,35.77
2019-01-31T18:01:37.687Z,35.00
2019-01-31T18:04:07.618Z,35.77
2019-01-31T18:06:37.528Z,36.47
2019-01-31T18:09:09.126Z,43.23
2019-01-31T18:11:38.948Z,37.63
2019-01-31T18:14:08.896Z,37.73
2019-01-31T18:16:38.671Z,38.57
2019-01-31T18:19:08.485Z,37.77
2019-01-31T18:21:38.286Z,61.27
2019-01-31T18:24:08.194Z,38.87
2019-01-31T18:26:38.024Z,38.57
2019-01-31T18:29:07.745Z,39.30
2019-01-31T18:31:37.604Z,39.47
2019-01-31T18:34:07.402Z,43.00
2019-01-31T18:36:37.239Z,40.50
2019-01-31T18:39:08.666Z,40.33
2019-01-31T18:41:38.466Z,39.37
2019-01-31T18:44:11.138Z,37.90
2019-01-31T18:46:41.253Z,39.87
2019-01-31T18:49:11.124Z,40.53
2019-01-31T18:51:41.039Z,41.40
2019-01-31T18:54:12.460Z,55.27
2019-01-31T18:56:42.371Z,46.80
2019-01-31T18:59:12.241Z,41.40
2019-01-31T19:01:42.193Z,39.53
2019-01-31T19:04:12.004Z,40.73
2019-01-31T19:06:41.833Z,40.30
2019-01-31T19:09:11.717Z,40.90
2019-01-31T19:11:41.558Z,40.40
2019-01-31T19:14:14.289Z,41.07
2019-01-31T19:16:42.887Z,40.83
2019-01-31T19:19:12.858Z,42.13
2019-01-31T19:21:42.693Z,40.73
2019-01-31T19:24:12.639Z,41.60
2019-01-31T19:26:42.523Z,44.27
2019-01-31T19:29:12.391Z,42.70
2019-01-31T19:31:42.329Z,42.43
2019-01-31T19:34:12.245Z,42.03
2019-01-31T19:36:42.072Z,42.03
2019-01-31T19:39:13.492Z,41.60
2019-01-31T19:41:43.423Z,43.00
2019-01-31T19:44:13.245Z,43.07
2019-01-31T19:46:43.083Z,41.57
2019-01-31T19:49:12.945Z,41.23
2019-01-31T19:51:43.534Z,42.83
2019-01-31T19:54:13.411Z,41.50
2019-01-31T19:56:43.233Z,42.00
2019-01-31T19:59:13.117Z,40.67
2019-01-31T20:01:43.091Z,60.53
2019-01-31T20:04:13.073Z,42.57
2019-01-31T20:06:42.891Z,42.97
2019-01-31T20:09:14.248Z,41.37
2019-01-31T20:11:44.090Z,40.53
2019-01-31T20:14:13.918Z,40.63
2019-01-31T20:16:43.752Z,41.50
2019-01-31T20:19:13.562Z,42.37
2019-01-31T20:21:43.421Z,41.73
2019-01-31T20:24:13.174Z,40.73
2019-01-31T20:26:42.994Z,40.30
2019-01-31T20:29:12.954Z,39.43
2019-01-31T20:31:42.722Z,40.00
2019-01-31T20:34:12.518Z,40.23
2019-01-31T20:36:42.321Z,41.00
2019-01-31T20:39:12.152Z,41.37
2019-01-31T20:41:53.477Z,44.70
2019-01-31T20:44:13.521Z,50.30
2019-01-31T20:46:43.353Z,41.50
2019-01-31T20:49:13.173Z,40.47
2019-01-31T20:51:43.133Z,39.50
2019-01-31T20:54:12.890Z,40.13
2019-01-31T20:56:42.614Z,40.43
2019-01-31T20:59:12.482Z,40.90
2019-01-31T21:01:42.327Z,41.20
2019-01-31T21:04:12.192Z,42.57
2019-01-31T21:06:42.072Z,41.10
2019-01-31T21:09:11.965Z,41.17
2019-01-31T21:11:41.740Z,41.60
2019-01-31T21:14:11.714Z,40.73
2019-01-31T21:16:51.282Z,42.50
2019-01-31T21:19:13.202Z,34.03
2019-01-31T21:21:43.004Z,37.10
2019-01-31T21:24:12.798Z,38.67
2019-01-31T21:26:42.618Z,42.73
2019-01-31T21:29:12.624Z,38.53
2019-01-31T21:31:42.448Z,37.27
2019-01-31T21:34:12.239Z,37.43
2019-01-31T21:36:42.058Z,38.23
2019-01-31T21:39:11.984Z,38.33
2019-01-31T21:41:41.802Z,37.40
2019-01-31T21:44:11.593Z,37.57
2019-01-31T21:46:41.400Z,35.17
2019-01-31T21:49:11.201Z,33.13
2019-01-31T21:51:41.043Z,33.63
2019-01-31T21:54:11.015Z,34.87
2019-01-31T21:56:40.789Z,34.83
2019-01-31T21:59:10.548Z,34.67
2019-01-31T22:01:40.333Z,35.33
2019-01-31T22:04:10.293Z,35.33
2019-01-31T22:06:40.086Z,35.87
2019-01-31T22:09:09.887Z,40.07
2019-01-31T22:11:39.640Z,37.70
2019-01-31T22:14:10.389Z,36.57
2019-01-31T22:16:40.162Z,36.97
2019-01-31T22:19:09.996Z,35.00
2019-01-31T22:21:39.772Z,33.47
2019-01-31T22:24:09.524Z,32.67
2019-01-31T22:26:39.332Z,31.63
2019-01-31T22:29:09.147Z,28.87
2019-01-31T22:31:39.001Z,26.03
2019-01-31T22:34:08.811Z,24.73
2019-01-31T22:36:38.569Z,24.70
2019-01-31T22:39:08.805Z,24.37
2019-01-31T22:41:38.572Z,23.83
2019-01-31T22:44:08.383Z,23.30
2019-01-31T22:46:38.202Z,23.80
2019-01-31T22:49:07.981Z,24.97
2019-01-31T22:51:37.792Z,24.50
2019-01-31T22:54:07.727Z,23.60
2019-01-31T22:56:37.492Z,24.93
2019-01-31T22:59:07.269Z,25.40
2019-01-31T23:01:38.544Z,25.67
2019-01-31T23:04:08.289Z,25.97
2019-01-31T23:06:38.110Z,23.97
2019-01-31T23:09:08.705Z,26.63
2019-01-31T23:11:38.532Z,24.27
2019-01-31T23:14:08.282Z,26.50
2019-01-31T23:16:38.094Z,25.90
2019-01-31T23:19:08.946Z,26.77
2019-01-31T23:21:38.692Z,24.03
2019-01-31T23:24:08.506Z,25.43
2019-01-31T23:26:38.326Z,25.17
2019-01-31T23:29:08.084Z,25.60
2019-01-31T23:31:37.892Z,24.97
2019-01-31T23:34:07.721Z,26.57
2019-01-31T23:36:37.583Z,25.67
2019-01-31T23:39:08.900Z,25.87
2019-01-31T23:41:38.701Z,25.50
2019-01-31T23:44:08.491Z,26.80
2019-01-31T23:46:38.293Z,26.97
2019-01-31T23:49:08.161Z,28.03
2019-01-31T23:51:37.925Z,29.23
2019-01-31T23:54:07.732Z,32.70
2019-01-31T23:56:37.516Z,30.50
2019-01-31T23:59:07.313Z,34.20
